createdAt,value
2022-08-10T00:03:01.698Z,76.00
2022-08-10T00:08:05.385Z,76.35
2022-08-10T00:13:09.925Z,76.91
2022-08-10T00:18:12.777Z,77.29
2022-08-10T00:23:37.051Z,76.42
2022-08-10T00:28:41.243Z,76.60
2022-08-10T00:33:44.079Z,76.35
2022-08-10T00:38:46.873Z,77.15
2022-08-10T00:43:51.232Z,77.49
2022-08-10T00:49:00.716Z,77.25
2022-08-10T00:54:03.829Z,77.70
2022-08-10T00:59:08.213Z,77.86
2022-08-10T01:04:58.232Z,78.97
2022-08-10T01:09:44.625Z,79.04
2022-08-10T01:15:11.897Z,79.11
2022-08-10T01:20:30.023Z,79.22
2022-08-10T01:26:11.576Z,80.35
2022-08-10T01:31:27.861Z,81.13
2022-08-10T01:36:36.372Z,81.63
2022-08-10T01:41:46.782Z,82.13
2022-08-10T01:46:56.812Z,82.47
2022-08-10T01:52:02.256Z,82.38
2022-08-10T01:57:06.055Z,82.70
2022-08-10T02:02:12.920Z,83.36
2022-08-10T02:07:19.494Z,83.97
2022-08-10T02:12:26.889Z,84.16
2022-08-10T02:17:59.387Z,84.25
2022-08-10T02:23:03.355Z,84.52
2022-08-10T02:28:08.293Z,84.38
2022-08-10T02:33:14.471Z,84.49
2022-08-10T02:38:59.006Z,84.08
2022-08-10T02:45:27.431Z,84.83
2022-08-10T02:54:43.168Z,85.30
2022-08-10T02:59:49.249Z,85.15
2022-08-10T03:04:58.461Z,86.16
2022-08-10T03:10:04.533Z,86.81
2022-08-10T03:15:19.582Z,87.93
2022-08-10T03:20:37.310Z,88.35
2022-08-10T03:25:53.286Z,87.98
2022-08-10T03:30:59.581Z,88.06
2022-08-10T03:36:43.507Z,87.62
2022-08-10T03:41:35.643Z,87.79
2022-08-10T03:46:42.623Z,88.37
2022-08-10T03:51:49.302Z,88.38
2022-08-10T03:56:52.515Z,88.21
2022-08-10T04:02:45.242Z,87.78
2022-08-10T04:07:20.585Z,86.92
2022-08-10T04:12:23.638Z,86.98
2022-08-10T04:18:02.854Z,87.12
2022-08-10T04:22:54.273Z,87.37
2022-08-10T04:27:57.624Z,87.07
2022-08-10T04:33:03.170Z,87.10
2022-08-10T04:38:09.449Z,87.00
2022-08-10T04:43:13.463Z,87.07
2022-08-10T04:48:43.135Z,87.14
2022-08-10T04:54:03.956Z,87.50
2022-08-10T04:59:03.978Z,87.44
2022-08-10T05:04:36.255Z,86.88
2022-08-10T05:09:31.273Z,87.05
2022-08-10T05:14:34.352Z,87.15
2022-08-10T05:20:01.799Z,87.72
2022-08-10T05:25:01.824Z,87.07
2022-08-10T05:30:07.036Z,85.93
2022-08-10T05:35:10.389Z,85.59
2022-08-10T05:40:15.136Z,83.88
2022-08-10T05:45:22.235Z,83.47
2022-08-10T05:50:27.743Z,81.50
2022-08-10T05:55:32.578Z,80.98
2022-08-10T06:00:45.935Z,77.96
2022-08-10T06:05:55.738Z,75.63
2022-08-10T06:12:24.659Z,73.36
2022-08-10T06:16:26.714Z,71.41
2022-08-10T06:21:29.913Z,71.13
2022-08-10T06:26:34.513Z,70.69
2022-08-10T06:31:48.984Z,68.99
2022-08-10T06:36:54.064Z,66.89
2022-08-10T06:42:15.408Z,64.88
2022-08-10T06:47:24.524Z,62.61
2022-08-10T06:52:29.755Z,56.42
2022-08-10T06:57:35.626Z,50.29
2022-08-10T07:02:45.270Z,42.05
2022-08-10T07:07:50.884Z,36.91
2022-08-10T07:12:59.545Z,30.37
2022-08-10T07:18:04.087Z,30.22
2022-08-10T07:23:57.855Z,28.78
2022-08-10T07:28:34.704Z,26.35
2022-08-10T07:33:39.967Z,24.63
2022-08-10T07:38:44.683Z,24.45
2022-08-10T07:43:50.632Z,25.19
2022-08-10T07:49:19.270Z,24.64
2022-08-10T07:54:24.675Z,25.17
2022-08-10T07:59:37.766Z,24.96
2022-08-10T08:04:40.916Z,26.80
2022-08-10T08:09:57.043Z,27.57
2022-08-10T08:16:14.542Z,29.08
2022-08-10T08:20:31.485Z,31.76
2022-08-10T08:25:35.663Z,36.49
2022-08-10T08:30:44.560Z,42.92
2022-08-10T08:35:51.981Z,45.82
2022-08-10T08:41:04.073Z,47.74
2022-08-10T08:46:59.365Z,49.47
2022-08-10T08:52:18.580Z,49.57
2022-08-10T08:57:50.183Z,48.89
2022-08-10T09:03:27.545Z,48.11
2022-08-10T09:08:58.536Z,49.38
2022-08-10T09:14:07.691Z,49.50
2022-08-10T09:19:31.847Z,51.12
2022-08-10T09:24:51.139Z,48.36
2022-08-10T09:29:57.158Z,46.80
2022-08-10T09:36:25.754Z,46.58
2022-08-10T09:41:02.257Z,46.74
2022-08-10T09:46:15.131Z,47.22
2022-08-10T09:51:45.527Z,47.26
2022-08-10T09:57:06.970Z,46.83
2022-08-10T10:02:27.439Z,46.58
2022-08-10T10:07:32.430Z,45.90
2022-08-10T10:12:45.816Z,45.31
2022-08-10T10:18:05.040Z,45.22
2022-08-10T10:23:17.385Z,45.09
2022-08-10T10:29:06.922Z,45.46
2022-08-10T10:34:16.746Z,45.03
2022-08-10T10:39:25.554Z,43.76
2022-08-10T10:44:42.284Z,44.07
2022-08-10T10:49:53.500Z,44.14
2022-08-10T10:55:10.080Z,43.83
2022-08-10T11:00:14.145Z,43.13
2022-08-10T11:05:24.388Z,42.38
2022-08-10T11:10:34.776Z,43.17
2022-08-10T11:15:47.590Z,40.99
2022-08-10T11:21:02.792Z,40.92
2022-08-10T11:26:12.979Z,41.88
2022-08-10T11:31:25.999Z,42.02
2022-08-10T11:36:38.017Z,41.17
2022-08-10T11:42:11.751Z,41.90
2022-08-10T11:47:19.829Z,42.76
2022-08-10T11:52:35.333Z,42.42
2022-08-10T11:57:53.773Z,42.20
2022-08-10T12:03:03.000Z,42.00
2022-08-10T12:10:02.676Z,40.62
2022-08-10T12:13:38.595Z,41.19
2022-08-10T12:18:48.019Z,39.98
2022-08-10T12:24:02.918Z,39.80
2022-08-10T12:29:14.239Z,40.23
2022-08-10T12:34:24.124Z,39.08
2022-08-10T12:39:31.188Z,38.90
2022-08-10T12:44:43.891Z,37.81
2022-08-10T12:50:30.183Z,37.96
2022-08-10T12:55:19.024Z,37.27
2022-08-10T13:00:30.051Z,38.73
2022-08-10T13:06:02.100Z,38.47
2022-08-10T13:11:02.893Z,38.41
2022-08-10T13:16:08.500Z,38.51
2022-08-10T13:21:19.732Z,38.60
2022-08-10T13:26:27.373Z,37.98
2022-08-10T13:32:04.037Z,39.24
2022-08-10T13:37:01.785Z,38.71
2022-08-10T13:42:08.267Z,38.30
2022-08-10T13:47:14.942Z,38.14
2022-08-10T13:52:22.635Z,37.91
2022-08-10T13:57:28.981Z,37.35
2022-08-10T14:02:35.770Z,37.22
2022-08-10T14:08:00.112Z,37.53
2022-08-10T14:13:06.289Z,37.04
2022-08-10T14:18:10.942Z,36.96
2022-08-10T14:23:15.304Z,37.00
2022-08-10T14:28:32.711Z,36.55
2022-08-10T14:33:37.997Z,37.08
2022-08-10T14:38:44.965Z,36.91
2022-08-10T14:43:55.278Z,36.38
2022-08-10T14:49:01.186Z,36.59
2022-08-10T14:54:29.871Z,36.96
2022-08-10T15:00:24.188Z,37.52
2022-08-10T15:04:58.565Z,37.25
2022-08-10T15:10:04.049Z,37.35
2022-08-10T15:15:10.527Z,37.17
2022-08-10T15:20:20.738Z,37.57
2022-08-10T15:25:26.811Z,37.37
2022-08-10T15:30:33.326Z,37.95
2022-08-10T15:35:56.871Z,37.73
2022-08-10T15:41:01.654Z,38.32
2022-08-10T15:46:15.700Z,38.09
2022-08-10T15:51:28.079Z,38.38
2022-08-10T15:56:41.155Z,38.59
2022-08-10T16:02:14.009Z,38.68
2022-08-10T16:07:17.761Z,38.57
2022-08-10T16:12:29.428Z,38.98
2022-08-10T16:17:54.689Z,38.31
2022-08-10T16:23:04.905Z,39.22
2022-08-10T16:28:09.971Z,39.20
2022-08-10T16:33:27.578Z,39.85
2022-08-10T16:38:52.716Z,39.74
2022-08-10T16:43:58.208Z,40.09
2022-08-10T16:49:02.635Z,40.81
2022-08-10T16:54:12.398Z,40.36
2022-08-10T16:59:17.757Z,40.50
2022-08-10T17:04:25.202Z,40.25
2022-08-10T17:09:32.972Z,40.05
2022-08-10T17:14:39.548Z,40.14
2022-08-10T17:19:45.403Z,40.22
2022-08-10T17:24:56.169Z,40.28
2022-08-10T17:30:04.880Z,40.75
2022-08-10T17:35:18.566Z,40.63
2022-08-10T17:40:28.578Z,40.41
2022-08-10T17:45:48.341Z,40.21
2022-08-10T17:50:55.071Z,40.39
2022-08-10T17:56:01.197Z,41.53
2022-08-10T18:01:38.105Z,41.43
2022-08-10T18:06:31.213Z,41.23
2022-08-10T18:11:41.567Z,42.07
2022-08-10T18:16:46.602Z,42.05
2022-08-10T18:21:51.491Z,42.12
2022-08-10T18:26:57.739Z,42.29
2022-08-10T18:32:02.780Z,42.50
2022-08-10T18:37:08.919Z,43.91
2022-08-10T18:42:17.697Z,45.63
2022-08-10T18:47:33.983Z,46.56
2022-08-10T18:52:39.369Z,47.66
2022-08-10T18:57:58.755Z,48.23
2022-08-10T19:03:28.370Z,49.31
2022-08-10T19:08:50.336Z,50.59
2022-08-10T19:14:01.465Z,50.93
2022-08-10T19:19:22.149Z,52.19
2022-08-10T19:24:33.921Z,52.45
2022-08-10T19:30:12.078Z,53.03
2022-08-10T19:35:23.454Z,53.94
2022-08-10T19:40:44.552Z,53.75
2022-08-10T19:46:03.232Z,54.57
2022-08-10T19:51:15.019Z,54.64
2022-08-10T19:56:34.034Z,55.15
2022-08-10T20:01:55.467Z,55.65
2022-08-10T20:07:09.835Z,56.86
2022-08-10T20:12:24.212Z,56.97
2022-08-10T20:17:51.032Z,57.63
2022-08-10T20:23:05.915Z,57.96
2022-08-10T20:28:19.655Z,57.44
2022-08-10T20:33:32.955Z,57.55
2022-08-10T20:38:43.495Z,58.22
2022-08-10T20:43:57.431Z,58.23
2022-08-10T20:49:12.069Z,58.64
2022-08-10T20:54:17.322Z,58.79
2022-08-10T21:00:04.717Z,59.07
2022-08-10T21:05:13.348Z,59.33
2022-08-10T21:10:26.751Z,59.26
2022-08-10T21:15:50.839Z,59.08
2022-08-10T21:21:16.645Z,59.81
2022-08-10T21:26:29.552Z,60.90
2022-08-10T21:31:48.178Z,61.32
2022-08-10T21:37:18.696Z,62.20
2022-08-10T21:42:53.739Z,62.33
2022-08-10T21:48:30.303Z,62.05
2022-08-10T21:53:56.823Z,61.27
2022-08-10T21:59:22.078Z,61.49
2022-08-10T22:04:44.707Z,61.57
2022-08-10T22:10:10.887Z,61.56
2022-08-10T22:16:03.638Z,61.75
2022-08-10T22:21:27.062Z,62.02
2022-08-10T22:27:47.149Z,62.14
2022-08-10T22:33:01.308Z,62.77
2022-08-10T22:38:34.035Z,62.60
2022-08-10T22:43:57.099Z,63.44
2022-08-10T22:49:01.836Z,64.12
2022-08-10T22:54:31.808Z,63.80
2022-08-10T22:59:36.352Z,64.46
2022-08-10T23:04:45.634Z,63.99
2022-08-10T23:09:56.978Z,64.00
2022-08-10T23:15:20.535Z,64.18
2022-08-10T23:20:41.280Z,64.42
2022-08-10T23:25:57.154Z,64.72
2022-08-10T23:31:04.028Z,65.25
2022-08-10T23:36:34.085Z,65.38
2022-08-10T23:41:34.408Z,65.50
2022-08-10T23:46:42.445Z,65.23
2022-08-10T23:51:55.396Z,65.80
2022-08-10T23:57:01.883Z,65.97
